Weather observations for the past three days for
Sacramento Mather Airport
| Date | Time (pdt) | Wind (kph) | Vis. (km) | Weather | Sky Cond. | Temperature (ºC) | Relative Humidity | Wind Chill (°C) | Heat Index (°C) | Pressure | Precipitation (cm) | ||||||
|---|---|---|---|---|---|---|---|---|---|---|---|---|---|---|---|---|---|
| Air | Dwpt | 6 hour | altimeter (cm) | sea level (mb) | 1 hr | 3 hr | 6 hr | ||||||||||
| Max. | Min. | ||||||||||||||||
| 05 | 18:35 | SE 11 | 16.09 | Overcast | OVC044 | 18 | 15 | 83% | 76.1 | 0.0 | |||||||
| 05 | 18:15 | SE 13 | 16.09 | Overcast | OVC040 | 18 | 15 | 83% | 76.1 | 0.0 | |||||||
| 05 | 17:50 | SE 13 | 16.09 | Overcast | OVC036 | 19 | 15 | 78% | 76.07 | 0.0 | |||||||
| 05 | 17:35 | SE 13 | 16.09 | Overcast | OVC038 | 19 | 15 | 78% | 76.07 | 0.0 | |||||||
| 05 | 17:15 | S 15 | 16.09 | Overcast | OVC038 | 19 | 14 | 73% | 76.07 | 0.0 | |||||||
| 05 | 16:55 | S 11 | 16.09 | Overcast | OVC038 | 20 | 13 | 64% | 76.05 | 0.0 | |||||||
| 05 | 16:35 | Calm | 16.09 | Mostly Cloudy | SCT040 BKN055 | 22 | 12 | 53% | 76.05 | 0.0 | |||||||
| 05 | 16:15 | Calm | 16.09 | Mostly Cloudy | BKN037 BKN050 | 0 | 0 | 0% | 76.05 | 0.0 | |||||||
| 05 | 15:55 | SW 7 | 16.09 | Mostly Cloudy | BKN036 BKN050 | 20 | 13 | 64% | 76.07 | 0.0 | |||||||
| 05 | 15:35 | Calm | 16.09 | Mostly Cloudy | BKN037 BKN047 | 20 | 13 | 64% | 76.07 | 0.0 | |||||||
| 05 | 15:15 | Vrbl 9 | 16.09 | Partly Cloudy | SCT038 | 20 | 14 | 69% | 76.1 | 0.0 | |||||||
| 05 | 14:50 | S 7 G 19 | 16.09 | Overcast | FEW030 OVC039 | 19 | 14 | 73% | 76.1 | 0.0 | |||||||
| 05 | 14:35 | Calm | 16.09 | Overcast | FEW030 OVC041 | 18 | 13 | 73% | 76.12 | 0.0 | |||||||
| 05 | 14:15 | Calm | 16.09 | Overcast | OVC039 | 19 | 13 | 68% | 76.12 | 0.0 | |||||||
| 05 | 13:55 | Calm | 16.09 | Overcast | SCT026 OVC038 | 18 | 13 | 73% | 76.12 | 0.0 | |||||||
| 05 | 13:35 | Vrbl 6 | 16.09 | Overcast | OVC036 | 18 | 14 | 78% | 76.12 | 0.0 | |||||||
| 05 | 13:15 | Calm | 16.09 | Overcast | OVC034 | 18 | 14 | 78% | 76.12 | 0.0 | |||||||
| 05 | 12:55 | Vrbl 7 | 16.09 | Overcast | OVC032 | 17 | 15 | 88% | 76.15 | 0.0 | |||||||
| 05 | 12:35 | Calm | 9.66 | Overcast with Haze | FEW020 SCT026 OVC033 | 17 | 14 | 83% | 76.15 | 0.0 | |||||||
| 05 | 12:15 | Vrbl 6 | 11.27 | Overcast | BKN019 OVC025 | 0 | 0 | 0% | 76.15 | 0.0 | |||||||
| 05 | 11:50 | Calm | 16.09 | Overcast | BKN021 OVC026 | 16 | 15 | 94% | 76.15 | 0.0 | |||||||
| 05 | 11:35 | Calm | 16.09 | Overcast | BKN019 OVC023 | 16 | 15 | 94% | 76.12 | 0.0 | |||||||
| 05 | 11:15 | Vrbl 6 | 16.09 | Overcast | BKN020 OVC055 | 16 | 15 | 94% | 76.12 | 0.0 | |||||||
| 05 | 10:55 | Calm | 16.09 | Overcast | OVC018 | 16 | 15 | 94% | 76.12 | 0.0 | |||||||
| 05 | 10:35 | S 7 | 16.09 | Overcast | OVC016 | 15 | 15 | 100% | 76.12 | 0.0 | |||||||
| 05 | 10:15 | Vrbl 7 | 16.09 | Overcast | BKN013 BKN020 OVC060 | 15 | 15 | 100% | 76.12 | 0.0 | |||||||
| 05 | 09:55 | SE 9 | 16.09 | Overcast | BKN012 OVC055 | 15 | 15 | 100% | 76.12 | 0.0 | |||||||
| 05 | 09:35 | S 11 | 16.09 | Overcast | BKN013 OVC050 | 14 | 14 | 100% | 76.12 | 0.0 | |||||||
| 05 | 09:15 | S 9 | 16.09 | Overcast | OVC012 | 14 | 14 | 100% | 76.12 | 0.0 | |||||||
| 05 | 08:50 | SE 11 | 16.09 | Overcast | OVC012 | 13 | 13 | 100% | 76.1 | 0.0 | |||||||
| 05 | 08:35 | SE 9 | 16.09 | Overcast | OVC012 | 13 | 13 | 100% | 76.1 | 0.0 | |||||||
| 05 | 08:15 | SE 11 | 16.09 | Overcast | BKN008 OVC013 | 13 | 13 | 100% | 76.1 | 0.0 | |||||||
| 05 | 07:55 | SE 13 | 16.09 | Overcast | FEW007 OVC012 | 13 | 13 | 100% | 76.07 | 0.0 | |||||||
| 05 | 07:15 | SE 11 | 16.09 | Overcast | OVC012 | 12 | 12 | 100% | 76.05 | 0.0 | |||||||
| 05 | 06:55 | SE 13 | 14.48 | Overcast | OVC011 | 12 | 12 | 100% | 76.05 | 0.0 | |||||||
| 05 | 06:35 | SE 9 | 14.48 | Overcast | OVC010 | 12 | 12 | 100% | 76.02 | 0.0 | |||||||
| 05 | 06:15 | SE 11 | 11.27 | Overcast | OVC009 | 12 | 12 | 100% | 76.02 | 0.0 | |||||||
| 05 | 05:50 | SE 9 | 14.48 | Overcast | OVC009 | 12 | 12 | 100% | 76.02 | 0.0 | |||||||
| 05 | 05:35 | SE 9 | 14.48 | Overcast | OVC009 | 12 | 12 | 100% | 76.02 | 0.0 | |||||||
| 05 | 05:15 | SE 11 | 12.87 | Overcast | OVC008 | 12 | 12 | 100% | 76.02 | 0.0 | |||||||
| 05 | 04:55 | SE 7 | 16.09 | Overcast | OVC008 | 0 | 0 | 0% | 76.02 | 0.0 | |||||||
| 05 | 04:35 | SE 9 | 16.09 | Overcast | OVC006 | 12 | 12 | 100% | 76.02 | 0.0 | |||||||
| 05 | 04:15 | SE 9 | 16.09 | Overcast | SCT007 SCT013 OVC048 | 0 | 0 | 0% | 76.02 | 0.0 | |||||||
| 05 | 03:55 | S 9 | 16.09 | Overcast | FEW013 BKN047 OVC050 | 12 | 12 | 100% | 76.02 | 0.0 | |||||||
| 05 | 03:35 | SE 9 | 16.09 | Overcast | OVC050 | 12 | 12 | 100% | 76.05 | 0.0 | |||||||
| 05 | 03:15 | S 11 | 16.09 | Overcast | OVC055 | 12 | 12 | 100% | 76.02 | 0.0 | |||||||
| 05 | 02:50 | S 7 | 16.09 | Overcast | OVC055 | 12 | 12 | 100% | 76.05 | 0.0 | |||||||
| 05 | 02:35 | SE 7 | 16.09 | Overcast | OVC055 | 12 | 12 | 100% | 76.05 | 0.0 | |||||||
| 05 | 02:15 | S 9 | 16.09 | Overcast | FEW005 OVC060 | 12 | 12 | 100% | 76.07 | 0.0 | |||||||
| 05 | 01:55 | S 7 | 16.09 | Overcast | BKN004 BKN009 OVC060 | 12 | 12 | 100% | 76.07 | 0.0 | 0.05 | ||||||
| 05 | 01:35 | S 7 | 16.09 | Overcast | SCT004 OVC060 | 12 | 12 | 100% | 76.1 | 0.0 | |||||||
| 05 | 00:55 | S 7 | 6.44 | Light Rain | FEW003 BKN060 OVC085 | 12 | 12 | 100% | 76.1 | 0.0 | 0.1 | ||||||
| 05 | 00:35 | S 6 | 4.83 | Light Rain | FEW037 SCT050 OVC060 | 12 | 12 | 100% | 76.1 | 0.0 | |||||||
| 05 | 00:15 | Calm | 16.09 | Overcast | BKN050 OVC060 | 12 | 12 | 100% | 76.1 | 0.0 | |||||||
| 04 | 23:55 | Calm | 12.87 | Light Rain | BKN055 OVC075 | 12 | 12 | 100% | 76.1 | 0.0 | 0.28 | ||||||
| 04 | 23:35 | SE 11 | 8.05 | Light Rain | BKN050 OVC060 | 12 | 12 | 100% | 76.1 | 0.0 | |||||||
| 04 | 23:15 | E 6 | 4.83 | Rain | FEW038 BKN050 OVC080 | 12 | 12 | 100% | 76.1 | 0.0 | |||||||
| 04 | 22:55 | Calm | 8.05 | Light Rain | FEW036 SCT045 BKN060 | 13 | 13 | 100% | 76.1 | 0.0 | 0.13 | ||||||
| 04 | 22:35 | Calm | 8.05 | Light Rain | FEW041 SCT049 BKN065 | 13 | 13 | 100% | 76.1 | 0.0 | |||||||
| 04 | 21:55 | SE 7 | 11.27 | Light Rain | SCT038 SCT065 OVC090 | 12 | 12 | 100% | 76.1 | 0.0 | 0.25 | ||||||
| 04 | 21:35 | Calm | 8.05 | Rain | OVC038 | 13 | 13 | 100% | 76.1 | 0.0 | |||||||
| 04 | 21:15 | Calm | 6.44 | Rain | SCT037 BKN049 BKN065 | 13 | 13 | 100% | 76.1 | 0.0 | |||||||
| 04 | 20:55 | Calm | 8.05 | Light Rain | FEW044 SCT050 BKN080 | 13 | 13 | 100% | 76.1 | 0.0 | 0.3 | ||||||
| 04 | 20:35 | Calm | 8.05 | Rain | FEW047 SCT055 BKN070 | 13 | 13 | 100% | 76.1 | 0.0 | |||||||
| 04 | 20:15 | NE 9 G 19 | 12.87 | Light Rain | FEW060 BKN070 BKN080 | 13 | 13 | 100% | 76.1 | 0.0 | |||||||
| 04 | 19:55 | Calm | 6.44 | Light Rain | FEW025 FEW038 BKN080 | 13 | 13 | 100% | 76.07 | 0.0 | 0.05 | ||||||
| 04 | 19:35 | E 7 | 14.48 | Light Rain | BKN025 BKN038 OVC050 | 13 | 13 | 100% | 76.05 | 0.0 | |||||||
| 04 | 19:15 | E 9 | 16.09 | Light Rain | SCT024 BKN050 OVC080 | 13 | 13 | 100% | 76.05 | 0.0 | |||||||
| 04 | 18:55 | E 7 | 9.66 | Light Rain | FEW042 BKN080 | 13 | 13 | 100% | 76.05 | 0.0 | 0.15 | ||||||
| 04 | 18:35 | E 6 | 11.27 | Light Rain | BKN080 | 13 | 13 | 100% | 76.05 | 0.0 | |||||||
| 04 | 18:10 | E 7 | 8.05 | Light Rain | FEW039 SCT070 OVC080 | 14 | 14 | 100% | 76.05 | 0.0 | |||||||
| 04 | 17:55 | E 13 | 14.48 | Light Rain | BKN075 | 14 | 14 | 100% | 76.07 | 0.0 | 0.05 | ||||||
| 04 | 17:35 | E 11 | 12.87 | Light Rain | FEW055 BKN070 | 14 | 14 | 100% | 76.07 | 0.0 | |||||||
| 04 | 17:15 | E 11 | 14.48 | Light Rain | SCT055 BKN070 | 14 | 14 | 100% | 76.07 | 0.0 | |||||||
| 04 | 16:55 | E 11 | 9.66 | Light Rain | FEW047 FEW060 | 14 | 14 | 100% | 76.07 | 0.0 | 0.13 | ||||||
| 04 | 16:35 | E 7 | 9.66 | Light Rain | SCT060 SCT070 | 14 | 14 | 100% | 76.07 | 0.0 | |||||||
| 04 | 16:15 | E 11 | 12.87 | Light Rain | SCT060 BKN070 | 14 | 14 | 100% | 76.07 | 0.0 | |||||||
| 04 | 15:55 | E 9 | 12.87 | Light Rain | BKN060 BKN070 | 15 | 15 | 100% | 76.1 | 0.0 | 0.08 | ||||||
| 04 | 15:35 | E 13 | 12.87 | Light Rain | BKN060 BKN070 | 15 | 15 | 100% | 76.1 | 0.0 | |||||||
| 04 | 15:15 | E 11 | 9.66 | Light Rain | FEW050 SCT060 | 15 | 15 | 100% | 76.1 | 0.0 | |||||||
| 04 | 14:55 | E 7 | 11.27 | Light Rain | FEW065 SCT080 | 15 | 15 | 100% | 76.1 | 0.0 | |||||||
| 04 | 14:35 | SE 7 | 16.09 | Light Rain | FEW055 SCT065 SCT080 | 16 | 15 | 94% | 76.12 | 0.0 | |||||||
| 04 | 14:15 | E 7 | 16.09 | Light Rain | BKN065 OVC100 | 16 | 15 | 94% | 76.12 | 0.0 | |||||||
| 04 | 13:55 | S 9 | 16.09 | Mostly Cloudy | FEW020 BKN070 BKN100 | 16 | 15 | 94% | 76.12 | 0.0 | |||||||
| 04 | 13:35 | S 11 | 16.09 | Mostly Cloudy | SCT021 SCT050 BKN070 | 17 | 15 | 88% | 76.1 | 0.0 | |||||||
| 04 | 13:15 | S 11 | 16.09 | Overcast | SCT022 BKN050 OVC070 | 16 | 14 | 88% | 76.1 | 0.0 | |||||||
| 04 | 12:55 | S 7 | 16.09 | Overcast | OVC070 | 16 | 14 | 88% | 76.12 | 0.0 | |||||||
| 04 | 12:35 | Calm | 14.48 | Light Rain | OVC070 | 15 | 14 | 94% | 76.12 | 0.0 | |||||||
| 04 | 12:15 | S 13 | 14.48 | Light Rain | SCT021 SCT050 OVC070 | 16 | 14 | 88% | 76.12 | 0.0 | |||||||
| 04 | 11:55 | S 11 G 20 | 16.09 | Light Rain | BKN021 BKN050 OVC070 | 16 | 13 | 83% | 76.12 | 0.0 | |||||||
| 04 | 11:35 | S 11 | 16.09 | Overcast | SCT021 BKN070 OVC080 | 16 | 14 | 88% | 76.15 | 0.0 | |||||||
| 04 | 11:15 | S 11 | 16.09 | Light Rain | FEW020 SCT070 OVC085 | 16 | 14 | 88% | 76.15 | 0.0 | |||||||
| 04 | 10:55 | S 13 | 16.09 | Light Rain | BKN085 | 15 | 14 | 94% | 76.12 | 0.0 | |||||||
| 04 | 10:35 | S 13 | 16.09 | A Few Clouds | FEW019 FEW049 FEW110 | 15 | 14 | 94% | 76.1 | 0.0 | |||||||
| 04 | 10:15 | S 13 | 16.09 | Partly Cloudy | FEW020 SCT049 SCT080 | 15 | 14 | 94% | 76.1 | 0.0 | |||||||
| 04 | 09:55 | S 13 | 16.09 | Mostly Cloudy | FEW019 SCT023 BKN080 | 15 | 13 | 88% | 76.1 | 0.0 | |||||||
| 04 | 09:35 | S 15 | 16.09 | Overcast | SCT018 BKN023 OVC065 | 15 | 14 | 94% | 76.1 | 0.0 | |||||||
| 04 | 09:10 | S 13 | 16.09 | Overcast | OVC017 | 14 | 13 | 94% | 76.1 | 0.0 | |||||||
| 04 | 08:55 | S 13 | 16.09 | Overcast | OVC017 | 14 | 13 | 94% | 76.1 | 0.0 | |||||||
| 04 | 08:35 | S 13 | 16.09 | Overcast | OVC017 | 14 | 14 | 100% | 76.07 | 0.0 | |||||||
| 04 | 08:15 | SE 15 | 16.09 | Overcast | OVC017 | 14 | 14 | 100% | 76.07 | 0.0 | |||||||
| 04 | 07:55 | SE 11 | 16.09 | Overcast | BKN017 OVC085 | 14 | 14 | 100% | 76.07 | 0.0 | |||||||
| 04 | 07:35 | SE 13 | 16.09 | Mostly Cloudy | SCT017 SCT032 BKN070 | 13 | 13 | 100% | 76.05 | 0.0 | |||||||
| 04 | 07:15 | E 13 | 16.09 | Mostly Cloudy | FEW017 SCT046 BKN080 | 14 | 14 | 100% | 76.05 | 0.0 | |||||||
| 04 | 06:55 | SE 9 | 16.09 | Mostly Cloudy | FEW017 FEW070 BKN080 | 13 | 13 | 100% | 76.05 | 0.0 | |||||||
| 04 | 06:35 | S 11 | 16.09 | Mostly Cloudy | BKN080 BKN090 | 12 | 12 | 100% | 76.02 | 0.0 | |||||||
| 04 | 06:15 | SE 13 | 16.09 | Overcast | FEW060 OVC075 | 12 | 12 | 100% | 76.02 | 0.0 | |||||||
| 04 | 05:55 | SE 9 | 16.09 | Overcast | BKN047 BKN060 OVC075 | 12 | 12 | 100% | 76.02 | 0.0 | |||||||
| 04 | 05:35 | S 9 | 16.09 | Overcast | BKN042 OVC048 | 12 | 12 | 100% | 76.02 | 0.0 | |||||||
| 04 | 05:15 | SE 11 | 16.09 | Overcast | OVC043 | 12 | 12 | 100% | 76.02 | 0.0 | |||||||
| 04 | 04:55 | SE 11 | 16.09 | Overcast | OVC043 | 11 | 11 | 100% | 76.02 | 0.0 | |||||||
| 04 | 04:35 | SE 9 | 16.09 | Overcast | OVC043 | 11 | 11 | 100% | 76.02 | 0.0 | |||||||
| 04 | 04:15 | SE 9 | 16.09 | Mostly Cloudy | BKN043 | 0 | 0 | 0% | 76.02 | 0.0 | |||||||
| 04 | 03:35 | SE 7 | 16.09 | Partly Cloudy | SCT046 | 11 | 11 | 100% | 76 | 0.0 | |||||||
| 04 | 03:10 | SE 11 | 16.09 | Partly Cloudy | FEW045 SCT100 | 11 | 11 | 100% | 76 | 0.0 | |||||||
| 04 | 02:55 | SE 7 | 16.09 | Partly Cloudy | SCT100 | 11 | 11 | 100% | 76.02 | 0.0 | |||||||
| 04 | 02:35 | SE 9 | 16.09 | Mostly Cloudy | BKN045 | 11 | 11 | 100% | 76.02 | 0.0 | |||||||
| 04 | 02:15 | SE 11 | 16.09 | Mostly Cloudy | BKN044 | 12 | 12 | 100% | 76.02 | 0.0 | |||||||
| 04 | 01:55 | SE 11 | 16.09 | Overcast | OVC043 | 12 | 12 | 100% | 76.02 | 0.0 | |||||||
| 04 | 01:35 | SE 11 | 16.09 | Mostly Cloudy | BKN042 | 0 | 0 | 0% | 76.02 | 0.0 | |||||||
| 04 | 01:15 | SE 11 | 16.09 | Mostly Cloudy | BKN040 | 12 | 12 | 100% | 76.02 | 0.0 | |||||||
| 04 | 00:55 | SE 9 | 16.09 | Mostly Cloudy | BKN041 | 12 | 12 | 100% | 76.02 | 0.0 | |||||||
| 04 | 00:35 | S 11 | 16.09 | A Few Clouds | FEW042 | 12 | 12 | 100% | 76.02 | 0.0 | |||||||
| 04 | 00:15 | SE 9 | 16.09 | Fair | CLR | 12 | 12 | 100% | 76.02 | 0.0 | |||||||
| 03 | 23:55 | SE 6 | 16.09 | A Few Clouds | FEW041 | 12 | 12 | 100% | 76.02 | 0.0 | |||||||
| 03 | 23:35 | SE 11 | 16.09 | Partly Cloudy | SCT041 | 0 | 0 | 0% | 76.02 | 0.0 | |||||||
| 03 | 23:10 | S 7 | 16.09 | Fair | CLR | 13 | 13 | 100% | 76 | 0.0 | |||||||
| 03 | 22:55 | SW 9 | 16.09 | Fair | CLR | 14 | 13 | 94% | 76 | 0.0 | |||||||
| 03 | 22:35 | SW 13 | 16.09 | Fair | CLR | 14 | 13 | 94% | 75.97 | 0.0 | |||||||
| 03 | 21:55 | SW 15 | 16.09 | Partly Cloudy | SCT070 | 15 | 12 | 82% | 75.95 | 0.0 | |||||||
| 03 | 21:35 | SW 19 | 16.09 | Fair | CLR | 15 | 12 | 82% | 75.95 | 0.0 | |||||||
| 03 | 21:15 | SW 19 | 16.09 | Fair | CLR | 15 | 12 | 82% | 75.95 | 0.0 | |||||||
| 03 | 20:55 | SW 19 | 16.09 | Fair | CLR | 15 | 12 | 82% | 75.92 | 0.0 | |||||||
| 03 | 20:35 | SW 20 | 16.09 | A Few Clouds | FEW060 | 16 | 12 | 77% | 75.9 | 0.0 | |||||||
| 03 | 20:15 | S 15 G 28 | 16.09 | Mostly Cloudy | BKN060 | 16 | 12 | 77% | 75.9 | 0.0 | |||||||
| 03 | 19:50 | SW 24 | 16.09 | Overcast | SCT046 OVC055 | 17 | 11 | 68% | 75.87 | 0.0 | |||||||
| 03 | 19:35 | SW 19 G 31 | 16.09 | Mostly Cloudy | BKN046 BKN055 | 18 | 11 | 64% | 75.87 | 0.0 | |||||||
| 03 | 19:15 | SW 22 | 16.09 | Partly Cloudy | SCT045 | 18 | 11 | 64% | 75.84 | 0.0 | |||||||
| 03 | 18:55 | SW 26 | 16.09 | Partly Cloudy | SCT044 | 19 | 11 | 60% | 75.84 | 0.0 | |||||||
| 03 | 18:35 | SW 24 | 16.09 | Fair | CLR | 20 | 11 | 56% | 75.82 | 0.0 | |||||||
| 03 | 18:15 | SW 19 G 30 | 16.09 | Fair | CLR | 20 | 11 | 56% | 75.82 | 0.0 | |||||||
| 03 | 17:55 | SW 19 G 30 | 16.09 | Fair | CLR | 21 | 11 | 53% | 75.82 | 0.0 | |||||||
| 03 | 17:35 | SW 20 | 16.09 | Fair | CLR | 20 | 11 | 56% | 75.82 | 0.0 | |||||||
| 03 | 17:15 | SW 20 G 30 | 16.09 | A Few Clouds | FEW043 | 21 | 11 | 53% | 75.82 | 0.0 | |||||||
| 03 | 16:55 | SW 22 | 16.09 | A Few Clouds | FEW043 | 21 | 11 | 53% | 75.82 | 0.0 | |||||||
| 03 | 16:35 | W 17 | 16.09 | Fair | CLR | 21 | 11 | 53% | 75.84 | 0.0 | |||||||
| 03 | 16:15 | SW 15 G 26 | 16.09 | A Few Clouds | FEW045 | 21 | 11 | 53% | 75.84 | 0.0 | |||||||
| 03 | 15:55 | SW 13 | 16.09 | A Few Clouds | FEW042 | 21 | 11 | 53% | 75.82 | 0.0 | |||||||
| 03 | 15:35 | SW 9 G 26 | 16.09 | A Few Clouds | FEW040 | 20 | 12 | 60% | 75.82 | 0.0 | |||||||
| 03 | 15:10 | SW 17 G 33 | 16.09 | Fair | CLR | 20 | 12 | 60% | 75.84 | 0.0 | |||||||
| 03 | 14:55 | S 17 | 16.09 | Fair | CLR | 20 | 12 | 60% | 75.84 | 0.0 | |||||||
| 03 | 14:35 | SW 24 | 16.09 | Fair | CLR | 20 | 12 | 60% | 75.87 | 0.0 | |||||||
| 03 | 14:15 | SW 20 | 16.09 | A Few Clouds | FEW037 | 20 | 12 | 60% | 75.84 | 0.0 | |||||||
| 03 | 13:55 | SW 19 G 33 | 16.09 | A Few Clouds | FEW037 | 20 | 12 | 60% | 75.87 | 0.0 | |||||||
| 03 | 13:35 | SW 17 G 35 | 16.09 | A Few Clouds | FEW036 | 20 | 12 | 60% | 75.87 | 0.0 | |||||||
| 03 | 13:15 | SW 22 | 16.09 | A Few Clouds | FEW036 | 20 | 12 | 60% | 75.87 | 0.0 | |||||||
| 03 | 12:55 | SW 19 | 16.09 | Fair | CLR | 20 | 12 | 60% | 75.87 | 0.0 | |||||||
| 03 | 12:35 | S 20 G 31 | 16.09 | Fair | CLR | 19 | 11 | 60% | 75.9 | 0.0 | |||||||
| 03 | 12:10 | S 19 | 16.09 | Fair | CLR | 18 | 12 | 68% | 75.92 | 0.0 | |||||||
| 03 | 11:55 | SW 20 | 16.09 | A Few Clouds | FEW030 | 18 | 12 | 68% | 75.92 | 0.0 | |||||||
| 03 | 11:35 | S 22 G 31 | 16.09 | Fair | CLR | 18 | 12 | 68% | 75.92 | 0.0 | |||||||
| 03 | 11:15 | SW 24 G 35 | 16.09 | Fair | CLR | 18 | 12 | 68% | 75.92 | 0.0 | |||||||
| 03 | 10:55 | S 24 G 33 | 16.09 | A Few Clouds | FEW025 FEW120 | 18 | 13 | 73% | 75.92 | 0.0 | |||||||
| 03 | 10:35 | S 22 | 16.09 | A Few Clouds | FEW025 FEW120 | 17 | 13 | 77% | 75.92 | 0.0 | |||||||
| 03 | 10:15 | S 19 | 16.09 | Fair | CLR | 17 | 13 | 77% | 75.9 | 0.0 | |||||||
| 03 | 09:55 | S 17 G 26 | 16.09 | Fair | CLR | 17 | 13 | 77% | 75.9 | 0.0 | |||||||
| 03 | 09:35 | S 19 | 16.09 | Fair | CLR | 17 | 13 | 77% | 75.9 | 0.0 | |||||||
| 03 | 09:15 | S 19 | 16.09 | A Few Clouds | FEW020 | 16 | 13 | 83% | 75.87 | 0.0 | |||||||
| 03 | 08:55 | S 17 | 16.09 | A Few Clouds | FEW019 | 15 | 13 | 88% | 75.87 | 0.0 | |||||||
| 03 | 08:35 | S 17 | 16.09 | A Few Clouds | FEW017 | 15 | 13 | 88% | 75.87 | 0.0 | |||||||
| 03 | 08:15 | S 17 | 16.09 | A Few Clouds | FEW016 | 14 | 14 | 100% | 75.84 | 0.0 | |||||||
| 03 | 07:55 | S 15 | 16.09 | Fair | CLR | 13 | 13 | 100% | 75.82 | 0.0 | |||||||
| 03 | 07:35 | SE 13 | 16.09 | Fair | CLR | 13 | 13 | 100% | 75.82 | 0.0 | |||||||
| 03 | 07:15 | SE 13 | 16.09 | Fair | CLR | 12 | 12 | 100% | 75.79 | 0.0 | |||||||
| 03 | 06:55 | SE 11 | 16.09 | Fair | CLR | 12 | 12 | 100% | 75.77 | 0.0 | |||||||
| 03 | 06:35 | SE 9 | 16.09 | Fair | CLR | 11 | 11 | 100% | 75.77 | 0.0 | |||||||
| 03 | 06:15 | SE 9 | 16.09 | Fair | CLR | 11 | 11 | 100% | 75.74 | 0.0 | |||||||
| 03 | 05:55 | SE 9 | 16.09 | Fair | CLR | 11 | 11 | 100% | 75.72 | 0.0 | |||||||
| 03 | 05:35 | SE 11 | 16.09 | Fair | CLR | 12 | 12 | 100% | 75.72 | 0.0 | |||||||
| 03 | 05:15 | SE 13 | 16.09 | Fair | CLR | 11 | 11 | 100% | 75.72 | 0.0 | |||||||
| 03 | 04:50 | SE 13 | 16.09 | A Few Clouds | FEW120 | 11 | 11 | 100% | 75.72 | 0.0 | |||||||
| 03 | 04:35 | SE 13 | 16.09 | Partly Cloudy | SCT120 | 11 | 11 | 100% | 75.69 | 0.0 | |||||||
| 03 | 04:15 | SE 11 | 16.09 | Partly Cloudy | SCT120 | 12 | 12 | 100% | 75.72 | 0.0 | |||||||
| 03 | 03:55 | SE 11 | 16.09 | Partly Cloudy | SCT120 | 12 | 12 | 100% | 75.72 | 0.0 | |||||||
| 03 | 03:15 | SE 9 | 16.09 | Fair | CLR | 12 | 12 | 100% | 75.69 | 0.0 | |||||||
| 03 | 02:55 | SE 9 | 16.09 | Partly Cloudy | SCT120 | 12 | 12 | 100% | 75.72 | 0.0 | |||||||
| 03 | 02:35 | S 7 | 16.09 | Partly Cloudy | SCT120 | 12 | 12 | 100% | 75.72 | 0.0 | |||||||
| 03 | 02:15 | S 9 | 16.09 | Fair | CLR | 12 | 12 | 100% | 75.72 | 0.0 | |||||||
| 03 | 01:55 | S 7 | 16.09 | Fair | CLR | 12 | 12 | 100% | 75.72 | 0.0 | |||||||
| 03 | 01:35 | S 7 | 16.09 | Fair | CLR | 11 | 11 | 100% | 75.74 | 0.0 | |||||||
| 03 | 01:15 | SE 9 | 16.09 | Fair | CLR | 12 | 12 | 100% | 75.77 | 0.0 | |||||||
| 03 | 00:55 | SE 7 | 16.09 | Fair | CLR | 12 | 12 | 100% | 75.77 | 0.0 | |||||||
| 03 | 00:10 | S 7 | 16.09 | Fair | CLR | 13 | 13 | 100% | 75.79 | 0.0 | |||||||
| 02 | 23:55 | S 9 | 16.09 | Fair | CLR | 13 | 13 | 100% | 75.79 | 0.0 | |||||||
| 02 | 23:35 | S 9 | 16.09 | Fair | CLR | 13 | 13 | 100% | 75.79 | 0.0 | |||||||
| 02 | 23:15 | SE 7 | 16.09 | Fair | CLR | 13 | 13 | 100% | 75.82 | 0.0 | |||||||
| 02 | 22:55 | S 7 | 16.09 | Fair | CLR | 13 | 13 | 100% | 75.79 | 0.0 | |||||||
| 02 | 22:35 | Calm | 16.09 | Fair | CLR | 14 | 14 | 100% | 75.79 | 0.0 | |||||||
| 02 | 22:15 | SW 7 | 16.09 | Fair | CLR | 15 | 15 | 100% | 75.79 | 0.0 | |||||||
| 02 | 21:55 | SW 11 | 16.09 | Fair | CLR | 15 | 14 | 94% | 75.79 | 0.0 | |||||||
| 02 | 21:35 | SW 13 | 16.09 | Fair | CLR | 15 | 14 | 94% | 75.77 | 0.0 | |||||||
| 02 | 20:50 | SW 13 | 16.09 | Fair | CLR | 16 | 13 | 83% | 75.74 | 0.0 | |||||||
| 02 | 20:35 | SW 15 | 16.09 | Fair | CLR | 16 | 13 | 83% | 75.72 | 0.0 | |||||||
| 02 | 20:15 | SW 17 | 16.09 | Fair | CLR | 17 | 13 | 77% | 75.72 | 0.0 | |||||||
| 02 | 19:55 | SW 17 | 16.09 | Fair | CLR | 0 | 0 | 0% | 75.72 | 0.0 | |||||||
| 02 | 19:35 | SW 17 | 16.09 | Fair | CLR | 18 | 13 | 73% | 75.72 | 0.0 | |||||||
| 02 | 19:15 | SW 17 | 16.09 | Fair | CLR | 19 | 14 | 73% | 75.69 | 0.0 | |||||||
| 02 | 18:55 | SW 17 | 16.09 | Fair | CLR | 20 | 13 | 64% | 75.69 | 0.0 | |||||||
| Date | Time (pdt) | Wind (kph) | Vis. (km) | Weather | Sky Cond. | Air | Dwpt | Max. | Min. | Relative Humidity | Wind Chill (°C) | Heat Index (°C) | altimeter (cm) | sea level (mb) | 1 hr | 3 hr | 6 hr |
| 6 hour | |||||||||||||||||
| Temperature (ºC) | Pressure | Precipitation (cm) | |||||||||||||||